createdAt,value
2022-08-03T00:00:36.451Z,18.21
2022-08-03T00:03:05.499Z,18.18
2022-08-03T00:05:33.873Z,18.15
2022-08-03T00:08:02.180Z,18.13
2022-08-03T00:10:30.610Z,18.11
2022-08-03T00:12:58.949Z,18.10
2022-08-03T00:15:27.275Z,18.08
2022-08-03T00:17:55.664Z,18.06
2022-08-03T00:20:24.537Z,18.06
2022-08-03T00:22:52.873Z,18.03
2022-08-03T00:25:21.302Z,18.03
2022-08-03T00:27:50.408Z,18.03
2022-08-03T00:30:19.365Z,18.03
2022-08-03T00:32:48.366Z,18.02
2022-08-03T00:35:36.584Z,18.01
2022-08-03T00:38:06.032Z,17.97
2022-08-03T00:40:35.238Z,17.94
2022-08-03T00:43:06.412Z,17.91
2022-08-03T00:45:37.770Z,17.89
2022-08-03T00:48:29.440Z,17.86
2022-08-03T00:50:56.810Z,17.84
2022-08-03T00:53:26.120Z,17.81
2022-08-03T00:55:54.555Z,17.78
2022-08-03T00:58:24.385Z,17.75
2022-08-03T01:00:52.838Z,17.72
2022-08-03T01:03:21.178Z,17.70
2022-08-03T01:05:56.475Z,17.69
2022-08-03T01:09:09.694Z,17.69
2022-08-03T01:12:00.755Z,17.69
2022-08-03T01:14:47.151Z,17.70
2022-08-03T01:17:24.743Z,17.70
2022-08-03T01:20:12.028Z,17.71
2022-08-03T01:23:14.962Z,17.74
2022-08-03T01:25:56.213Z,17.77
2022-08-03T01:28:58.410Z,17.80
2022-08-03T01:31:32.871Z,17.82
2022-08-03T01:34:05.159Z,17.83
2022-08-03T01:36:43.872Z,17.85
2022-08-03T01:39:12.942Z,17.86
2022-08-03T01:41:49.705Z,17.89
2022-08-03T01:44:29.200Z,17.91
2022-08-03T01:47:01.450Z,17.92
2022-08-03T01:49:33.705Z,17.95
2022-08-03T01:52:05.514Z,17.96
2022-08-03T01:54:45.844Z,17.95
2022-08-03T01:57:15.380Z,17.94
2022-08-03T01:59:45.689Z,17.88
2022-08-03T02:02:33.457Z,17.79
2022-08-03T02:05:10.731Z,17.66
2022-08-03T02:07:42.202Z,17.55
2022-08-03T02:10:13.499Z,17.48
2022-08-03T02:12:46.059Z,17.44
2022-08-03T02:15:17.045Z,17.39
2022-08-03T02:17:47.562Z,17.33
2022-08-03T02:20:17.333Z,17.27
2022-08-03T02:22:47.734Z,17.20
2022-08-03T02:25:16.906Z,17.14
2022-08-03T02:28:02.377Z,17.07
2022-08-03T02:30:39.566Z,16.99
2022-08-03T02:33:12.682Z,16.94
2022-08-03T02:35:43.070Z,16.89
2022-08-03T02:38:15.545Z,16.83
2022-08-03T02:40:46.412Z,16.78
2022-08-03T02:43:18.883Z,16.74
2022-08-03T02:45:49.406Z,16.70
2022-08-03T02:48:25.485Z,16.66
2022-08-03T02:50:57.285Z,16.62
2022-08-03T02:53:31.024Z,16.59
2022-08-03T02:56:00.476Z,16.54
2022-08-03T02:58:31.383Z,16.50
2022-08-03T03:01:01.035Z,16.48
2022-08-03T03:03:33.161Z,16.46
2022-08-03T03:06:06.889Z,16.43
2022-08-03T03:08:35.603Z,16.43
2022-08-03T03:11:09.263Z,16.43
2022-08-03T03:13:39.984Z,16.42
2022-08-03T03:16:08.804Z,16.42
2022-08-03T03:18:38.469Z,16.44
2022-08-03T03:21:10.034Z,16.48
2022-08-03T03:23:41.059Z,16.52
2022-08-03T03:26:09.986Z,16.57
2022-08-03T03:28:38.499Z,16.61
2022-08-03T03:31:07.946Z,16.61
2022-08-03T03:33:37.730Z,16.63
2022-08-03T03:36:07.284Z,16.63
2022-08-03T03:38:35.695Z,16.66
2022-08-03T03:41:05.242Z,16.68
2022-08-03T03:43:34.899Z,16.72
2022-08-03T03:46:03.443Z,16.75
2022-08-03T03:48:32.294Z,16.78
2022-08-03T03:51:02.112Z,16.81
2022-08-03T03:53:30.537Z,16.83
2022-08-03T03:56:02.647Z,16.83
2022-08-03T03:58:33.009Z,16.85
2022-08-03T04:01:01.839Z,16.87
2022-08-03T04:03:30.505Z,16.86
2022-08-03T04:06:17.995Z,16.85
2022-08-03T04:09:05.004Z,16.85
2022-08-03T04:11:47.882Z,16.88
2022-08-03T04:14:29.204Z,16.89
2022-08-03T04:17:01.948Z,16.92
2022-08-03T04:19:42.506Z,16.98
2022-08-03T04:22:15.019Z,17.05
2022-08-03T04:24:57.394Z,17.15
2022-08-03T04:27:28.995Z,17.23
2022-08-03T04:29:58.144Z,17.32
2022-08-03T04:32:29.033Z,17.38
2022-08-03T04:34:57.998Z,17.42
2022-08-03T04:37:48.193Z,17.48
2022-08-03T04:40:25.653Z,17.59
2022-08-03T04:43:00.521Z,17.73
2022-08-03T04:45:30.762Z,17.81
2022-08-03T04:47:59.864Z,17.92
2022-08-03T04:50:31.441Z,18.05
2022-08-03T04:53:07.281Z,18.19
2022-08-03T04:55:36.101Z,18.30
2022-08-03T04:58:05.326Z,18.42
2022-08-03T05:00:33.903Z,18.52
2022-08-03T05:03:02.304Z,18.56
2022-08-03T05:05:48.798Z,18.58
2022-08-03T05:08:20.523Z,18.61
2022-08-03T05:10:59.083Z,18.62
2022-08-03T05:13:27.969Z,18.59
2022-08-03T05:15:56.449Z,18.57
2022-08-03T05:18:24.770Z,18.62
2022-08-03T05:20:53.144Z,18.68
2022-08-03T05:23:21.587Z,18.71
2022-08-03T05:25:50.357Z,18.70
2022-08-03T05:28:19.016Z,18.72
2022-08-03T05:30:47.427Z,18.78
2022-08-03T05:33:15.811Z,18.88
2022-08-03T05:35:57.499Z,19.00
2022-08-03T05:38:34.768Z,19.14
2022-08-03T05:41:21.891Z,19.24
2022-08-03T05:43:54.986Z,19.42
2022-08-03T05:46:23.329Z,19.74
2022-08-03T05:48:51.921Z,20.10
2022-08-03T05:51:20.659Z,20.42
2022-08-03T05:53:49.279Z,20.74
2022-08-03T05:56:17.648Z,21.07
2022-08-03T05:58:47.836Z,21.38
2022-08-03T06:01:17.523Z,21.67
2022-08-03T06:03:46.686Z,22.00
2022-08-03T06:06:15.568Z,22.34
2022-08-03T06:08:45.494Z,22.67
2022-08-03T06:11:13.865Z,22.99
2022-08-03T06:13:42.852Z,23.31
2022-08-03T06:16:11.343Z,23.60
2022-08-03T06:18:41.133Z,23.78
2022-08-03T06:21:15.551Z,23.98
2022-08-03T06:23:54.763Z,24.26
2022-08-03T06:26:25.525Z,24.57
2022-08-03T06:28:55.374Z,24.88
2022-08-03T06:31:33.078Z,25.19
2022-08-03T06:34:31.610Z,25.51
2022-08-03T06:36:53.136Z,25.74
2022-08-03T06:39:23.573Z,25.89
2022-08-03T06:41:53.832Z,26.13
2022-08-03T06:44:22.204Z,26.37
2022-08-03T06:46:51.614Z,26.64
2022-08-03T06:49:20.162Z,26.86
2022-08-03T06:52:03.767Z,27.03
2022-08-03T06:54:36.105Z,27.24
2022-08-03T06:57:05.848Z,27.45
2022-08-03T07:00:07.775Z,27.66
2022-08-03T07:02:22.754Z,27.94
2022-08-03T07:04:51.138Z,28.15
2022-08-03T07:07:20.842Z,28.30
2022-08-03T07:09:54.962Z,28.54
2022-08-03T07:12:27.887Z,28.68
2022-08-03T07:15:00.912Z,28.81
2022-08-03T07:17:31.951Z,28.96
2022-08-03T07:20:01.712Z,29.03
2022-08-03T07:22:30.422Z,28.87
2022-08-03T07:24:58.884Z,28.95
2022-08-03T07:27:28.786Z,28.98
2022-08-03T07:29:58.908Z,28.99
2022-08-03T07:32:28.706Z,29.00
2022-08-03T07:35:00.829Z,28.99
2022-08-03T07:37:31.148Z,29.25
2022-08-03T07:40:01.241Z,29.58
2022-08-03T07:42:30.187Z,29.83
2022-08-03T07:44:59.624Z,30.11
2022-08-03T07:47:35.636Z,30.37
2022-08-03T07:50:08.556Z,30.50
2022-08-03T07:52:50.080Z,30.65
2022-08-03T07:55:26.649Z,30.84
2022-08-03T07:58:10.153Z,31.12
2022-08-03T08:00:39.001Z,31.41
2022-08-03T08:03:07.591Z,31.49
2022-08-03T08:05:36.009Z,31.61
2022-08-03T08:08:05.168Z,31.83
2022-08-03T08:10:34.084Z,31.85
2022-08-03T08:13:03.775Z,31.94
2022-08-03T08:15:33.114Z,32.12
2022-08-03T08:18:02.733Z,32.22
2022-08-03T08:20:36.531Z,32.23
2022-08-03T08:23:24.229Z,32.18
2022-08-03T08:25:57.279Z,32.21
2022-08-03T08:28:32.718Z,32.36
2022-08-03T08:31:02.765Z,32.63
2022-08-03T08:36:20.035Z,32.96
2022-08-03T08:38:48.549Z,33.06
2022-08-03T08:41:17.584Z,33.13
2022-08-03T08:43:45.886Z,33.21
2022-08-03T08:46:23.133Z,33.16
2022-08-03T08:48:54.638Z,33.19
2022-08-03T08:51:51.011Z,33.27
2022-08-03T08:54:21.580Z,33.42
2022-08-03T08:56:52.877Z,33.58
2022-08-03T08:59:22.517Z,33.63
2022-08-03T09:01:50.879Z,33.56
2022-08-03T09:04:19.343Z,33.53
2022-08-03T09:07:04.686Z,33.56
2022-08-03T09:10:11.332Z,33.45
2022-08-03T09:12:42.456Z,33.42
2022-08-03T09:15:28.877Z,33.26
2022-08-03T09:18:01.983Z,33.28
2022-08-03T09:20:33.574Z,33.39
2022-08-03T09:23:43.819Z,33.34
2022-08-03T09:26:01.865Z,33.36
2022-08-03T09:29:00.712Z,33.55
2022-08-03T09:31:37.828Z,33.67
2022-08-03T09:34:11.922Z,33.72
2022-08-03T09:37:13.106Z,33.94
2022-08-03T09:39:42.446Z,33.88
2022-08-03T09:42:14.428Z,33.70
2022-08-03T09:44:49.353Z,33.62
2022-08-03T09:52:11.037Z,34.42
2022-08-03T09:54:25.696Z,34.63
2022-08-03T09:56:54.305Z,34.70
2022-08-03T09:59:31.565Z,34.95
2022-08-03T10:02:00.711Z,34.94
2022-08-03T10:04:29.077Z,34.73
2022-08-03T10:07:09.654Z,34.83
2022-08-03T10:09:38.950Z,34.76
2022-08-03T10:12:09.375Z,34.49
2022-08-03T10:14:39.701Z,34.61
2022-08-03T10:17:09.653Z,34.79
2022-08-03T10:19:38.571Z,34.84
2022-08-03T10:22:22.898Z,35.04
2022-08-03T10:29:14.710Z,35.45
2022-08-03T10:31:54.753Z,35.30
2022-08-03T10:34:29.830Z,35.44
2022-08-03T10:37:00.410Z,35.67
2022-08-03T10:39:30.897Z,35.85
2022-08-03T10:42:02.705Z,36.03
2022-08-03T10:44:40.138Z,36.13
2022-08-03T10:47:11.531Z,36.19
2022-08-03T10:49:40.470Z,36.12
2022-08-03T10:52:13.404Z,36.07
2022-08-03T10:55:17.274Z,36.16
2022-08-03T10:57:48.973Z,36.19
2022-08-03T11:00:20.954Z,36.30
2022-08-03T11:03:11.203Z,36.53
2022-08-03T11:06:03.299Z,36.79
2022-08-03T11:08:36.975Z,36.95
2022-08-03T11:11:17.509Z,36.65
2022-08-03T11:14:07.912Z,36.17
2022-08-03T11:16:39.689Z,35.90
2022-08-03T11:19:13.583Z,36.01
2022-08-03T11:21:54.072Z,36.22
2022-08-03T11:24:51.479Z,36.42
2022-08-03T11:27:23.009Z,36.62
2022-08-03T11:34:15.198Z,36.69
2022-08-03T11:37:22.971Z,36.55
2022-08-03T11:39:54.810Z,36.67
2022-08-03T11:42:23.516Z,36.78
2022-08-03T11:44:52.713Z,36.91
2022-08-03T11:47:22.488Z,36.93
2022-08-03T11:49:54.332Z,36.75
2022-08-03T11:52:26.731Z,36.72
2022-08-03T11:54:57.508Z,36.86
2022-08-03T11:59:10.748Z,37.10
2022-08-03T12:00:31.360Z,37.28
2022-08-03T12:03:05.903Z,37.42
2022-08-03T12:05:54.910Z,37.51
2022-08-03T12:08:32.789Z,37.48
2022-08-03T12:11:08.799Z,37.52
2022-08-03T12:14:44.867Z,37.66
2022-08-03T12:16:35.965Z,37.84
2022-08-03T12:19:07.032Z,37.84
2022-08-03T12:21:35.638Z,37.75
2022-08-03T12:24:05.608Z,37.49
2022-08-03T12:26:57.213Z,36.93
2022-08-03T12:29:27.872Z,36.68
2022-08-03T12:31:56.580Z,36.51
2022-08-03T12:34:25.088Z,36.67
2022-08-03T12:37:00.429Z,36.80
2022-08-03T12:39:31.475Z,36.48
2022-08-03T12:41:59.927Z,36.25
2022-08-03T12:44:33.317Z,36.28
2022-08-03T12:47:04.101Z,36.13
2022-08-03T12:49:49.164Z,36.30
2022-08-03T12:52:19.402Z,36.59
2022-08-03T12:55:06.049Z,36.79
2022-08-03T12:57:41.693Z,36.85
2022-08-03T13:00:21.798Z,36.48
2022-08-03T13:03:38.578Z,35.67
2022-08-03T13:05:52.334Z,34.96
2022-08-03T13:08:25.668Z,34.52
2022-08-03T13:10:54.036Z,34.24
2022-08-03T13:13:41.117Z,34.44
2022-08-03T13:16:09.538Z,34.69
2022-08-03T13:18:37.924Z,34.57
2022-08-03T13:21:06.718Z,34.25
2022-08-03T13:23:35.068Z,33.90
2022-08-03T13:26:03.443Z,33.74
2022-08-03T13:28:31.759Z,34.03
2022-08-03T13:31:00.170Z,34.35
2022-08-03T13:33:28.958Z,34.34
2022-08-03T13:35:57.438Z,33.82
2022-08-03T13:38:27.232Z,33.31
2022-08-03T13:40:57.026Z,32.86
2022-08-03T13:43:25.447Z,32.92
2022-08-03T13:45:57.982Z,33.17
2022-08-03T13:48:36.638Z,33.43
2022-08-03T13:51:11.848Z,33.73
2022-08-03T13:53:52.568Z,33.95
2022-08-03T13:56:20.996Z,34.16
2022-08-03T13:58:49.314Z,34.31
2022-08-03T14:01:25.940Z,34.42
2022-08-03T14:04:06.546Z,34.45
2022-08-03T14:06:49.452Z,34.49
2022-08-03T14:09:17.926Z,34.56
2022-08-03T14:12:04.089Z,34.62
2022-08-03T14:14:35.791Z,34.63
2022-08-03T14:17:04.259Z,34.53
2022-08-03T14:19:32.655Z,34.11
2022-08-03T14:22:21.788Z,33.61
2022-08-03T14:24:50.117Z,33.23
2022-08-03T14:27:20.242Z,33.10
2022-08-03T14:29:49.697Z,33.20
2022-08-03T14:32:17.989Z,33.33
2022-08-03T14:34:46.314Z,33.49
2022-08-03T14:37:14.879Z,33.57
2022-08-03T14:40:00.415Z,33.50
2022-08-03T14:42:29.446Z,33.41
2022-08-03T14:45:03.457Z,33.37
2022-08-03T14:47:36.458Z,33.37
2022-08-03T14:50:30.830Z,33.33
2022-08-03T14:53:07.738Z,33.34
2022-08-03T14:55:38.777Z,33.34
2022-08-03T14:58:23.536Z,33.32
2022-08-03T15:00:53.451Z,33.28
2022-08-03T15:03:25.792Z,33.26
2022-08-03T15:05:56.856Z,33.21
2022-08-03T15:08:26.903Z,33.12
2022-08-03T15:10:55.295Z,33.04
2022-08-03T15:13:25.506Z,33.02
2022-08-03T15:15:53.876Z,32.93
2022-08-03T15:18:22.257Z,32.83
2022-08-03T15:20:51.055Z,32.71
2022-08-03T15:23:19.651Z,32.56
2022-08-03T15:26:28.679Z,32.45
2022-08-03T15:28:37.432Z,32.30
2022-08-03T15:31:07.207Z,32.19
2022-08-03T15:33:35.632Z,32.11
2022-08-03T15:36:05.082Z,32.03
2022-08-03T15:38:33.518Z,31.93
2022-08-03T15:41:01.850Z,31.84
2022-08-03T15:43:30.248Z,31.68
2022-08-03T15:46:27.747Z,31.54
2022-08-03T15:48:47.530Z,31.39
2022-08-03T15:51:16.255Z,31.21
2022-08-03T15:53:44.673Z,31.04
2022-08-03T15:56:16.802Z,30.92
2022-08-03T15:59:07.627Z,30.81
2022-08-03T16:01:35.604Z,30.67
2022-08-03T16:04:04.509Z,30.60
2022-08-03T16:06:35.806Z,30.52
2022-08-03T16:09:22.888Z,30.42
2022-08-03T16:11:55.775Z,30.32
2022-08-03T16:14:35.620Z,30.26
2022-08-03T16:17:06.455Z,30.16
2022-08-03T16:19:35.677Z,29.99
2022-08-03T16:22:04.214Z,29.83
2022-08-03T16:24:33.060Z,29.69
2022-08-03T16:27:01.683Z,29.56
2022-08-03T16:29:30.158Z,29.45
2022-08-03T16:31:58.483Z,29.34
2022-08-03T16:34:26.874Z,29.27
2022-08-03T16:36:55.186Z,29.18
2022-08-03T16:39:23.652Z,29.10
2022-08-03T16:41:54.507Z,29.03
2022-08-03T16:44:31.143Z,28.95
2022-08-03T16:46:59.889Z,28.86
2022-08-03T16:49:55.543Z,28.75
2022-08-03T16:52:17.949Z,28.63
2022-08-03T16:54:52.469Z,28.54
2022-08-03T16:57:56.052Z,28.41
2022-08-03T17:00:32.977Z,28.27
2022-08-03T17:03:19.107Z,28.15
2022-08-03T17:05:50.229Z,27.98
2022-08-03T17:08:26.114Z,27.84
2022-08-03T17:10:56.517Z,27.71
2022-08-03T17:13:39.272Z,27.59
2022-08-03T17:16:10.733Z,27.46
2022-08-03T17:23:33.891Z,27.13
2022-08-03T17:26:02.179Z,26.99
2022-08-03T17:28:51.847Z,26.87
2022-08-03T17:31:30.841Z,26.78
2022-08-03T17:34:04.452Z,26.67
2022-08-03T17:37:03.146Z,26.56
2022-08-03T17:39:48.454Z,26.44
2022-08-03T17:42:30.892Z,26.31
2022-08-03T17:45:03.887Z,26.20
2022-08-03T17:47:42.774Z,26.09
2022-08-03T17:50:24.561Z,25.98
2022-08-03T17:57:27.114Z,25.69
2022-08-03T18:00:26.030Z,25.56
2022-08-03T18:03:18.637Z,25.44
2022-08-03T18:06:12.722Z,25.29
2022-08-03T18:13:20.264Z,24.97
2022-08-03T18:16:03.369Z,24.79
2022-08-03T18:18:38.734Z,24.66
2022-08-03T18:21:17.164Z,24.51
2022-08-03T18:23:50.298Z,24.40
2022-08-03T18:26:21.766Z,24.34
2022-08-03T18:28:54.883Z,24.27
2022-08-03T18:31:59.789Z,24.20
2022-08-03T18:34:32.513Z,24.10
2022-08-03T18:37:07.183Z,23.99
2022-08-03T18:39:49.826Z,23.91
2022-08-03T18:42:25.676Z,23.82
2022-08-03T18:44:56.825Z,23.75
2022-08-03T18:47:52.531Z,23.69
2022-08-03T18:55:04.525Z,23.52
2022-08-03T18:58:22.848Z,23.44
2022-08-03T19:02:00.133Z,23.39
2022-08-03T19:04:19.722Z,23.34
2022-08-03T19:07:22.163Z,23.30
2022-08-03T19:14:11.368Z,23.16
2022-08-03T19:16:43.732Z,23.11
2022-08-03T19:19:17.599Z,23.06
2022-08-03T19:21:48.544Z,23.01
2022-08-03T19:24:23.350Z,22.94
2022-08-03T19:26:56.210Z,22.90
2022-08-03T19:29:25.438Z,22.86
2022-08-03T19:32:21.077Z,22.81
2022-08-03T19:34:51.859Z,22.76
2022-08-03T19:37:22.206Z,22.74
2022-08-03T19:39:56.735Z,22.71
2022-08-03T19:42:31.066Z,22.64
2022-08-03T19:45:11.223Z,22.61
2022-08-03T19:47:51.653Z,22.55
2022-08-03T19:50:21.023Z,22.51
2022-08-03T19:52:50.331Z,22.49
2022-08-03T19:55:18.811Z,22.44
2022-08-03T19:57:49.662Z,22.41
2022-08-03T20:00:26.111Z,22.37
2022-08-03T20:02:57.258Z,22.34
2022-08-03T20:05:26.604Z,22.30
2022-08-03T20:07:58.034Z,22.29
2022-08-03T20:10:27.032Z,22.24
2022-08-03T20:12:55.383Z,22.20
2022-08-03T20:15:31.783Z,22.18
2022-08-03T20:18:01.012Z,22.14
2022-08-03T20:20:32.836Z,22.09
2022-08-03T20:23:07.147Z,22.07
2022-08-03T20:25:58.127Z,22.04
2022-08-03T20:28:50.505Z,22.02
2022-08-03T20:31:25.223Z,21.99
2022-08-03T20:34:01.163Z,21.95
2022-08-03T20:36:29.611Z,21.92
2022-08-03T20:38:59.545Z,21.90
2022-08-03T20:41:28.373Z,21.90
2022-08-03T20:44:01.080Z,21.88
2022-08-03T20:46:38.562Z,21.86
2022-08-03T20:49:23.043Z,21.83
2022-08-03T20:51:53.841Z,21.81
2022-08-03T20:54:29.856Z,21.78
2022-08-03T20:57:04.196Z,21.75
2022-08-03T20:59:51.244Z,21.71
2022-08-03T21:02:29.454Z,21.68
2022-08-03T21:05:03.726Z,21.64
2022-08-03T21:08:04.936Z,21.62
2022-08-03T21:10:41.962Z,21.60
2022-08-03T21:12:57.103Z,25.16
2022-08-03T21:16:11.742Z,21.56
2022-08-03T21:22:13.955Z,21.50
2022-08-03T21:24:43.901Z,21.47
2022-08-03T21:27:13.040Z,21.42
2022-08-03T21:29:52.866Z,21.36
2022-08-03T21:32:30.002Z,21.27
2022-08-03T21:35:01.705Z,21.14
2022-08-03T21:37:30.100Z,21.03
2022-08-03T21:39:58.539Z,20.91
2022-08-03T21:42:27.043Z,20.82
2022-08-03T21:44:55.347Z,20.73
2022-08-03T21:47:25.329Z,20.66
2022-08-03T21:50:06.247Z,20.57
2022-08-03T21:52:46.391Z,20.46
2022-08-03T21:55:18.386Z,20.33
2022-08-03T21:57:53.483Z,20.21
2022-08-03T22:00:23.695Z,20.10
2022-08-03T22:02:57.126Z,20.00
2022-08-03T22:05:42.608Z,19.90
2022-08-03T22:08:15.361Z,19.83
2022-08-03T22:10:45.191Z,19.77
2022-08-03T22:13:16.262Z,19.72
2022-08-03T22:15:49.039Z,19.67
2022-08-03T22:18:39.168Z,19.65
2022-08-03T22:21:10.294Z,19.64
2022-08-03T22:23:51.919Z,19.64
2022-08-03T22:26:34.816Z,19.63
2022-08-03T22:29:08.395Z,19.63
2022-08-03T22:31:59.195Z,19.61
2022-08-03T22:34:27.435Z,19.59
2022-08-03T22:37:00.402Z,19.56
2022-08-03T22:39:30.076Z,19.52
2022-08-03T22:41:59.233Z,19.48
2022-08-03T22:44:28.560Z,19.44
2022-08-03T22:46:58.355Z,19.38
2022-08-03T22:49:29.072Z,19.33
2022-08-03T22:51:58.724Z,19.30
2022-08-03T22:54:28.281Z,19.29
2022-08-03T22:56:58.699Z,19.27
2022-08-03T22:59:40.682Z,19.24
2022-08-03T23:02:21.185Z,19.21
2022-08-03T23:04:56.876Z,19.17
2022-08-03T23:07:33.639Z,19.11
2022-08-03T23:10:05.496Z,19.06
2022-08-03T23:12:37.356Z,19.03
2022-08-03T23:15:08.607Z,18.99
2022-08-03T23:17:58.026Z,18.95
2022-08-03T23:20:29.091Z,18.93
2022-08-03T23:22:58.327Z,18.90
2022-08-03T23:25:27.354Z,18.88
2022-08-03T23:28:04.529Z,18.88
2022-08-03T23:30:37.978Z,18.87
2022-08-03T23:33:08.542Z,18.84
2022-08-03T23:36:29.898Z,18.83
2022-08-03T23:38:46.321Z,18.77
2022-08-03T23:41:17.829Z,18.75
2022-08-03T23:43:51.687Z,18.71
2022-08-03T23:46:24.068Z,18.66
2022-08-03T23:48:53.934Z,18.64
2022-08-03T23:51:35.718Z,18.60
2022-08-03T23:54:24.303Z,18.57
2022-08-03T23:57:25.083Z,18.52
